sensor_id;sensor_type;location;lat;lon;timestamp;temperature;humidity
12769;DHT22;6448;48.916;8.990;2022-11-03T00:00:47;14.30;54.20
12769;DHT22;6448;48.916;8.990;2022-11-03T00:01:49;14.30;54.20
12769;DHT22;6448;48.916;8.990;2022-11-03T00:02:51;14.30;54.20
12769;DHT22;6448;48.916;8.990;2022-11-03T00:03:52;14.30;54.20
12769;DHT22;6448;48.916;8.990;2022-11-03T00:04:55;14.30;54.20
12769;DHT22;6448;48.916;8.990;2022-11-03T00:05:56;14.40;54.30
12769;DHT22;6448;48.916;8.990;2022-11-03T00:07:05;14.30;54.20
12769;DHT22;6448;48.916;8.990;2022-11-03T00:08:07;14.30;54.30
12769;DHT22;6448;48.916;8.990;2022-11-03T00:09:11;14.30;54.40
12769;DHT22;6448;48.916;8.990;2022-11-03T00:10:13;14.30;54.40
12769;DHT22;6448;48.916;8.990;2022-11-03T00:11:14;14.30;54.40
12769;DHT22;6448;48.916;8.990;2022-11-03T00:12:16;14.20;54.40
12769;DHT22;6448;48.916;8.990;2022-11-03T00:13:17;14.30;54.60
12769;DHT22;6448;48.916;8.990;2022-11-03T00:14:19;14.30;54.60
12769;DHT22;6448;48.916;8.990;2022-11-03T00:15:20;14.30;54.60
12769;DHT22;6448;48.916;8.990;2022-11-03T00:16:21;14.30;54.70
12769;DHT22;6448;48.916;8.990;2022-11-03T00:17:23;14.20;54.60
12769;DHT22;6448;48.916;8.990;2022-11-03T00:18:24;14.20;54.50
12769;DHT22;6448;48.916;8.990;2022-11-03T00:19:25;14.20;54.60
12769;DHT22;6448;48.916;8.990;2022-11-03T00:20:29;14.20;54.60
12769;DHT22;6448;48.916;8.990;2022-11-03T00:21:29;14.20;54.60
12769;DHT22;6448;48.916;8.990;2022-11-03T00:22:31;14.20;54.60
12769;DHT22;6448;48.916;8.990;2022-11-03T00:23:34;14.20;54.60
12769;DHT22;6448;48.916;8.990;2022-11-03T00:24:36;14.20;54.70
12769;DHT22;6448;48.916;8.990;2022-11-03T00:25:37;14.20;54.60
12769;DHT22;6448;48.916;8.990;2022-11-03T00:26:38;14.20;54.70
12769;DHT22;6448;48.916;8.990;2022-11-03T00:27:39;14.20;54.70
12769;DHT22;6448;48.916;8.990;2022-11-03T00:28:43;14.30;54.80
12769;DHT22;6448;48.916;8.990;2022-11-03T00:29:44;14.20;54.80
12769;DHT22;6448;48.916;8.990;2022-11-03T00:30:46;14.10;54.80
12769;DHT22;6448;48.916;8.990;2022-11-03T00:31:47;14.20;54.80
12769;DHT22;6448;48.916;8.990;2022-11-03T00:32:48;14.10;54.70
12769;DHT22;6448;48.916;8.990;2022-11-03T00:33:50;14.10;54.70
12769;DHT22;6448;48.916;8.990;2022-11-03T00:34:52;14.10;54.70
12769;DHT22;6448;48.916;8.990;2022-11-03T00:35:57;14.10;54.70
12769;DHT22;6448;48.916;8.990;2022-11-03T00:36:59;14.10;54.70
12769;DHT22;6448;48.916;8.990;2022-11-03T00:38:01;14.20;54.80
12769;DHT22;6448;48.916;8.990;2022-11-03T00:39:02;14.10;54.80
12769;DHT22;6448;48.916;8.990;2022-11-03T00:40:05;14.10;54.80
12769;DHT22;6448;48.916;8.990;2022-11-03T00:41:06;14.10;55.20
12769;DHT22;6448;48.916;8.990;2022-11-03T00:42:08;14.10;54.80
12769;DHT22;6448;48.916;8.990;2022-11-03T00:43:09;14.10;54.80
12769;DHT22;6448;48.916;8.990;2022-11-03T00:44:10;14.10;54.80
12769;DHT22;6448;48.916;8.990;2022-11-03T00:45:12;14.10;54.80
12769;DHT22;6448;48.916;8.990;2022-11-03T00:46:13;14.10;54.80
12769;DHT22;6448;48.916;8.990;2022-11-03T00:47:15;14.10;54.80
12769;DHT22;6448;48.916;8.990;2022-11-03T00:48:16;14.10;54.80
12769;DHT22;6448;48.916;8.990;2022-11-03T00:49:31;14.20;54.80
12769;DHT22;6448;48.916;8.990;2022-11-03T00:50:33;14.10;54.80
12769;DHT22;6448;48.916;8.990;2022-11-03T00:51:35;14.10;54.80
12769;DHT22;6448;48.916;8.990;2022-11-03T00:52:37;14.10;54.80
12769;DHT22;6448;48.916;8.990;2022-11-03T00:53:39;14.10;54.80
12769;DHT22;6448;48.916;8.990;2022-11-03T00:54:41;14.10;54.80
12769;DHT22;6448;48.916;8.990;2022-11-03T00:55:48;14.10;54.80
12769;DHT22;6448;48.916;8.990;2022-11-03T00:56:49;14.10;54.70
12769;DHT22;6448;48.916;8.990;2022-11-03T00:57:52;14.10;54.60
12769;DHT22;6448;48.916;8.990;2022-11-03T00:58:54;14.10;54.70
12769;DHT22;6448;48.916;8.990;2022-11-03T00:59:56;14.10;54.70
12769;DHT22;6448;48.916;8.990;2022-11-03T01:01:01;14.10;54.60
12769;DHT22;6448;48.916;8.990;2022-11-03T01:02:03;14.10;54.60
12769;DHT22;6448;48.916;8.990;2022-11-03T01:03:04;14.10;54.50
12769;DHT22;6448;48.916;8.990;2022-11-03T01:04:07;14.10;54.40
12769;DHT22;6448;48.916;8.990;2022-11-03T01:05:26;14.00;54.20
12769;DHT22;6448;48.916;8.990;2022-11-03T01:06:48;14.00;54.20
12769;DHT22;6448;48.916;8.990;2022-11-03T01:07:49;14.00;54.20
12769;DHT22;6448;48.916;8.990;2022-11-03T01:08:51;14.00;54.20
12769;DHT22;6448;48.916;8.990;2022-11-03T01:09:52;13.90;54.20
12769;DHT22;6448;48.916;8.990;2022-11-03T01:10:54;14.00;54.20
12769;DHT22;6448;48.916;8.990;2022-11-03T01:12:15;14.00;54.20
12769;DHT22;6448;48.916;8.990;2022-11-03T01:13:16;14.00;54.20
12769;DHT22;6448;48.916;8.990;2022-11-03T01:14:17;14.00;54.20
12769;DHT22;6448;48.916;8.990;2022-11-03T01:15:19;14.00;54.20
12769;DHT22;6448;48.916;8.990;2022-11-03T01:16:20;14.00;54.20
12769;DHT22;6448;48.916;8.990;2022-11-03T01:17:23;14.00;54.20
12769;DHT22;6448;48.916;8.990;2022-11-03T01:18:25;14.00;54.20
12769;DHT22;6448;48.916;8.990;2022-11-03T01:19:26;14.00;54.20
12769;DHT22;6448;48.916;8.990;2022-11-03T01:20:28;14.10;54.30
12769;DHT22;6448;48.916;8.990;2022-11-03T01:21:29;13.90;54.20
12769;DHT22;6448;48.916;8.990;2022-11-03T01:22:32;14.10;54.30
12769;DHT22;6448;48.916;8.990;2022-11-03T01:23:34;13.90;54.10
12769;DHT22;6448;48.916;8.990;2022-11-03T01:24:36;13.90;54.10
12769;DHT22;6448;48.916;8.990;2022-11-03T01:25:38;13.90;54.10
12769;DHT22;6448;48.916;8.990;2022-11-03T01:26:39;13.90;54.00
12769;DHT22;6448;48.916;8.990;2022-11-03T01:27:41;13.90;54.00
12769;DHT22;6448;48.916;8.990;2022-11-03T01:28:43;14.10;54.10
12769;DHT22;6448;48.916;8.990;2022-11-03T01:29:45;13.80;54.00
12769;DHT22;6448;48.916;8.990;2022-11-03T01:30:46;13.90;54.10
12769;DHT22;6448;48.916;8.990;2022-11-03T01:31:48;13.80;54.10
12769;DHT22;6448;48.916;8.990;2022-11-03T01:32:49;13.80;54.20
12769;DHT22;6448;48.916;8.990;2022-11-03T01:33:52;13.80;54.20
12769;DHT22;6448;48.916;8.990;2022-11-03T01:34:53;13.80;54.20
12769;DHT22;6448;48.916;8.990;2022-11-03T01:35:55;13.80;54.30
12769;DHT22;6448;48.916;8.990;2022-11-03T01:36:56;13.80;54.30
12769;DHT22;6448;48.916;8.990;2022-11-03T01:37:59;13.80;54.40
12769;DHT22;6448;48.916;8.990;2022-11-03T01:39:00;13.80;54.40
12769;DHT22;6448;48.916;8.990;2022-11-03T01:40:02;13.80;54.40
12769;DHT22;6448;48.916;8.990;2022-11-03T01:41:05;13.80;54.50
12769;DHT22;6448;48.916;8.990;2022-11-03T01:42:10;13.80;54.40
12769;DHT22;6448;48.916;8.990;2022-11-03T01:43:16;13.80;54.40
12769;DHT22;6448;48.916;8.990;2022-11-03T01:44:27;13.80;54.40
12769;DHT22;6448;48.916;8.990;2022-11-03T01:45:29;13.80;54.40
12769;DHT22;6448;48.916;8.990;2022-11-03T01:46:30;13.80;54.40
12769;DHT22;6448;48.916;8.990;2022-11-03T01:47:33;13.80;54.40
12769;DHT22;6448;48.916;8.990;2022-11-03T01:48:35;13.80;54.40
12769;DHT22;6448;48.916;8.990;2022-11-03T01:49:41;13.80;54.50
12769;DHT22;6448;48.916;8.990;2022-11-03T01:50:44;13.80;54.50
12769;DHT22;6448;48.916;8.990;2022-11-03T01:51:50;13.70;54.40
12769;DHT22;6448;48.916;8.990;2022-11-03T01:52:55;13.80;54.50
12769;DHT22;6448;48.916;8.990;2022-11-03T01:54:02;13.70;54.40
12769;DHT22;6448;48.916;8.990;2022-11-03T01:55:07;13.70;54.20
12769;DHT22;6448;48.916;8.990;2022-11-03T01:56:11;13.70;54.20
12769;DHT22;6448;48.916;8.990;2022-11-03T01:57:17;13.80;54.10
12769;DHT22;6448;48.916;8.990;2022-11-03T01:58:22;13.60;53.90
12769;DHT22;6448;48.916;8.990;2022-11-03T01:59:25;13.70;54.00
12769;DHT22;6448;48.916;8.990;2022-11-03T02:00:28;13.60;54.10
12769;DHT22;6448;48.916;8.990;2022-11-03T02:01:29;13.60;54.20
12769;DHT22;6448;48.916;8.990;2022-11-03T02:02:31;13.60;54.10
12769;DHT22;6448;48.916;8.990;2022-11-03T02:03:36;13.60;54.10
12769;DHT22;6448;48.916;8.990;2022-11-03T02:04:38;13.60;54.20
12769;DHT22;6448;48.916;8.990;2022-11-03T02:05:42;13.60;54.20
12769;DHT22;6448;48.916;8.990;2022-11-03T02:06:45;13.60;54.30
12769;DHT22;6448;48.916;8.990;2022-11-03T02:07:51;13.60;54.40
12769;DHT22;6448;48.916;8.990;2022-11-03T02:08:59;13.60;54.40
12769;DHT22;6448;48.916;8.990;2022-11-03T02:10:02;13.60;54.40
12769;DHT22;6448;48.916;8.990;2022-11-03T02:11:04;13.60;54.50
12769;DHT22;6448;48.916;8.990;2022-11-03T02:12:25;13.60;54.50
12769;DHT22;6448;48.916;8.990;2022-11-03T02:13:27;13.60;54.60
12769;DHT22;6448;48.916;8.990;2022-11-03T02:14:27;13.60;54.60
12769;DHT22;6448;48.916;8.990;2022-11-03T02:15:30;13.50;54.60
12769;DHT22;6448;48.916;8.990;2022-11-03T02:16:32;13.60;54.70
12769;DHT22;6448;48.916;8.990;2022-11-03T02:17:34;13.50;54.80
12769;DHT22;6448;48.916;8.990;2022-11-03T02:18:35;13.50;54.80
12769;DHT22;6448;48.916;8.990;2022-11-03T02:19:40;13.60;54.90
12769;DHT22;6448;48.916;8.990;2022-11-03T02:20:45;13.50;54.90
12769;DHT22;6448;48.916;8.990;2022-11-03T02:21:56;13.50;54.90
12769;DHT22;6448;48.916;8.990;2022-11-03T02:23:10;13.50;55.00
12769;DHT22;6448;48.916;8.990;2022-11-03T02:24:25;13.50;55.10
12769;DHT22;6448;48.916;8.990;2022-11-03T02:25:40;13.50;55.20
12769;DHT22;6448;48.916;8.990;2022-11-03T02:26:46;13.50;55.20
12769;DHT22;6448;48.916;8.990;2022-11-03T02:27:47;13.50;55.20
12769;DHT22;6448;48.916;8.990;2022-11-03T02:28:49;13.50;55.20
12769;DHT22;6448;48.916;8.990;2022-11-03T02:29:50;13.50;55.30
12769;DHT22;6448;48.916;8.990;2022-11-03T02:31:07;13.50;55.30
12769;DHT22;6448;48.916;8.990;2022-11-03T02:32:17;13.50;55.40
12769;DHT22;6448;48.916;8.990;2022-11-03T02:33:30;13.50;55.40
12769;DHT22;6448;48.916;8.990;2022-11-03T02:34:39;13.50;55.50
12769;DHT22;6448;48.916;8.990;2022-11-03T02:35:47;13.50;55.50
12769;DHT22;6448;48.916;8.990;2022-11-03T02:36:54;13.50;55.50
12769;DHT22;6448;48.916;8.990;2022-11-03T02:37:58;13.50;56.20
12769;DHT22;6448;48.916;8.990;2022-11-03T02:39:05;13.50;55.60
12769;DHT22;6448;48.916;8.990;2022-11-03T02:40:11;13.50;55.70
12769;DHT22;6448;48.916;8.990;2022-11-03T02:41:17;13.50;55.80
12769;DHT22;6448;48.916;8.990;2022-11-03T02:42:19;13.50;55.80
12769;DHT22;6448;48.916;8.990;2022-11-03T02:43:22;13.50;55.80
12769;DHT22;6448;48.916;8.990;2022-11-03T02:44:25;13.50;55.90
12769;DHT22;6448;48.916;8.990;2022-11-03T02:45:28;13.50;55.90
12769;DHT22;6448;48.916;8.990;2022-11-03T02:46:30;13.50;56.00
12769;DHT22;6448;48.916;8.990;2022-11-03T02:47:34;13.50;56.00
12769;DHT22;6448;48.916;8.990;2022-11-03T02:48:37;13.50;56.00
12769;DHT22;6448;48.916;8.990;2022-11-03T02:49:39;13.50;55.90
12769;DHT22;6448;48.916;8.990;2022-11-03T02:50:40;13.50;55.90
12769;DHT22;6448;48.916;8.990;2022-11-03T02:51:42;13.50;55.90
12769;DHT22;6448;48.916;8.990;2022-11-03T02:52:44;13.50;55.90
12769;DHT22;6448;48.916;8.990;2022-11-03T02:54:05;13.50;56.00
12769;DHT22;6448;48.916;8.990;2022-11-03T02:55:11;13.50;56.00
12769;DHT22;6448;48.916;8.990;2022-11-03T02:56:19;13.50;56.00
12769;DHT22;6448;48.916;8.990;2022-11-03T02:57:27;13.50;56.10
12769;DHT22;6448;48.916;8.990;2022-11-03T02:58:35;13.50;56.10
12769;DHT22;6448;48.916;8.990;2022-11-03T02:59:44;13.50;56.00
12769;DHT22;6448;48.916;8.990;2022-11-03T03:00:48;13.50;56.00
12769;DHT22;6448;48.916;8.990;2022-11-03T03:01:55;13.40;55.90
12769;DHT22;6448;48.916;8.990;2022-11-03T03:03:03;13.50;55.90
12769;DHT22;6448;48.916;8.990;2022-11-03T03:04:08;13.40;55.80
12769;DHT22;6448;48.916;8.990;2022-11-03T03:05:10;13.50;55.80
12769;DHT22;6448;48.916;8.990;2022-11-03T03:06:18;13.50;55.80
12769;DHT22;6448;48.916;8.990;2022-11-03T03:07:25;13.50;56.00
12769;DHT22;6448;48.916;8.990;2022-11-03T03:08:28;13.40;55.90
12769;DHT22;6448;48.916;8.990;2022-11-03T03:09:34;13.40;55.90
12769;DHT22;6448;48.916;8.990;2022-11-03T03:10:38;13.40;56.00
12769;DHT22;6448;48.916;8.990;2022-11-03T03:11:44;13.40;56.00
12769;DHT22;6448;48.916;8.990;2022-11-03T03:12:47;13.40;56.00
12769;DHT22;6448;48.916;8.990;2022-11-03T03:13:50;13.50;56.00
12769;DHT22;6448;48.916;8.990;2022-11-03T03:14:53;13.40;56.00
12769;DHT22;6448;48.916;8.990;2022-11-03T03:16:03;13.40;55.90
12769;DHT22;6448;48.916;8.990;2022-11-03T03:17:11;13.40;55.90
12769;DHT22;6448;48.916;8.990;2022-11-03T03:18:19;13.40;55.80
12769;DHT22;6448;48.916;8.990;2022-11-03T03:19:30;13.40;55.80
12769;DHT22;6448;48.916;8.990;2022-11-03T03:20:38;13.50;55.80
12769;DHT22;6448;48.916;8.990;2022-11-03T03:21:44;13.40;56.40
12769;DHT22;6448;48.916;8.990;2022-11-03T03:22:52;13.40;55.70
12769;DHT22;6448;48.916;8.990;2022-11-03T03:23:58;13.40;55.70
12769;DHT22;6448;48.916;8.990;2022-11-03T03:25:06;13.40;55.70
12769;DHT22;6448;48.916;8.990;2022-11-03T03:26:13;13.40;55.70
12769;DHT22;6448;48.916;8.990;2022-11-03T03:27:22;13.40;55.60
12769;DHT22;6448;48.916;8.990;2022-11-03T03:28:30;13.40;55.70
12769;DHT22;6448;48.916;8.990;2022-11-03T03:29:37;13.30;55.60
12769;DHT22;6448;48.916;8.990;2022-11-03T03:30:41;13.40;55.60
12769;DHT22;6448;48.916;8.990;2022-11-03T03:31:48;13.40;55.60
12769;DHT22;6448;48.916;8.990;2022-11-03T03:32:51;13.30;55.50
12769;DHT22;6448;48.916;8.990;2022-11-03T03:33:56;13.30;55.60
12769;DHT22;6448;48.916;8.990;2022-11-03T03:34:59;13.30;55.50
12769;DHT22;6448;48.916;8.990;2022-11-03T03:36:07;13.30;55.50
12769;DHT22;6448;48.916;8.990;2022-11-03T03:37:10;13.30;55.50
12769;DHT22;6448;48.916;8.990;2022-11-03T03:38:15;13.30;55.60
12769;DHT22;6448;48.916;8.990;2022-11-03T03:39:19;13.30;55.60
12769;DHT22;6448;48.916;8.990;2022-11-03T03:40:26;13.30;55.50
12769;DHT22;6448;48.916;8.990;2022-11-03T03:41:29;13.30;55.30
12769;DHT22;6448;48.916;8.990;2022-11-03T03:42:35;13.30;55.30
12769;DHT22;6448;48.916;8.990;2022-11-03T03:43:39;13.30;55.30
12769;DHT22;6448;48.916;8.990;2022-11-03T03:44:41;13.30;55.30
12769;DHT22;6448;48.916;8.990;2022-11-03T03:45:44;13.30;55.40
12769;DHT22;6448;48.916;8.990;2022-11-03T03:46:50;13.30;55.50
12769;DHT22;6448;48.916;8.990;2022-11-03T03:47:52;13.30;55.40
12769;DHT22;6448;48.916;8.990;2022-11-03T03:48:53;13.30;55.40
12769;DHT22;6448;48.916;8.990;2022-11-03T03:49:56;13.10;55.30
12769;DHT22;6448;48.916;8.990;2022-11-03T03:50:57;13.30;55.40
12769;DHT22;6448;48.916;8.990;2022-11-03T03:52:00;13.20;55.30
12769;DHT22;6448;48.916;8.990;2022-11-03T03:53:05;13.20;55.20
12769;DHT22;6448;48.916;8.990;2022-11-03T03:54:07;13.20;55.20
12769;DHT22;6448;48.916;8.990;2022-11-03T03:55:15;13.20;55.20
12769;DHT22;6448;48.916;8.990;2022-11-03T03:56:22;13.20;55.20
12769;DHT22;6448;48.916;8.990;2022-11-03T03:57:24;13.20;55.30
12769;DHT22;6448;48.916;8.990;2022-11-03T03:58:29;13.20;55.30
12769;DHT22;6448;48.916;8.990;2022-11-03T03:59:30;13.20;55.30
12769;DHT22;6448;48.916;8.990;2022-11-03T04:00:32;13.20;55.30
12769;DHT22;6448;48.916;8.990;2022-11-03T04:01:33;13.20;55.40
12769;DHT22;6448;48.916;8.990;2022-11-03T04:02:34;13.20;55.50
12769;DHT22;6448;48.916;8.990;2022-11-03T04:03:35;13.20;55.50
12769;DHT22;6448;48.916;8.990;2022-11-03T04:04:37;13.20;55.60
12769;DHT22;6448;48.916;8.990;2022-11-03T04:05:38;13.20;55.70
12769;DHT22;6448;48.916;8.990;2022-11-03T04:06:40;13.20;55.80
12769;DHT22;6448;48.916;8.990;2022-11-03T04:07:40;13.20;55.90
12769;DHT22;6448;48.916;8.990;2022-11-03T04:08:48;13.20;56.00
12769;DHT22;6448;48.916;8.990;2022-11-03T04:09:49;13.20;56.10
12769;DHT22;6448;48.916;8.990;2022-11-03T04:10:51;13.20;56.20
12769;DHT22;6448;48.916;8.990;2022-11-03T04:12:10;13.20;56.30
12769;DHT22;6448;48.916;8.990;2022-11-03T04:13:31;13.20;56.40
12769;DHT22;6448;48.916;8.990;2022-11-03T04:14:50;13.20;56.40
12769;DHT22;6448;48.916;8.990;2022-11-03T04:16:10;13.20;56.50
12769;DHT22;6448;48.916;8.990;2022-11-03T04:17:30;13.20;56.50
12769;DHT22;6448;48.916;8.990;2022-11-03T04:18:48;13.20;56.40
12769;DHT22;6448;48.916;8.990;2022-11-03T04:20:11;13.20;56.40
12769;DHT22;6448;48.916;8.990;2022-11-03T04:21:31;13.30;56.40
12769;DHT22;6448;48.916;8.990;2022-11-03T04:22:50;13.20;56.40
12769;DHT22;6448;48.916;8.990;2022-11-03T04:23:52;13.20;56.40
12769;DHT22;6448;48.916;8.990;2022-11-03T04:24:53;13.20;56.40
12769;DHT22;6448;48.916;8.990;2022-11-03T04:25:55;13.20;56.40
12769;DHT22;6448;48.916;8.990;2022-11-03T04:27:01;13.20;56.40
12769;DHT22;6448;48.916;8.990;2022-11-03T04:28:08;13.20;56.50
12769;DHT22;6448;48.916;8.990;2022-11-03T04:29:11;13.20;56.50
12769;DHT22;6448;48.916;8.990;2022-11-03T04:30:14;13.20;56.40
12769;DHT22;6448;48.916;8.990;2022-11-03T04:31:17;13.20;56.30
12769;DHT22;6448;48.916;8.990;2022-11-03T04:32:19;13.20;56.20
12769;DHT22;6448;48.916;8.990;2022-11-03T04:33:20;13.20;56.20
12769;DHT22;6448;48.916;8.990;2022-11-03T04:34:23;13.40;56.10
12769;DHT22;6448;48.916;8.990;2022-11-03T04:35:25;13.20;56.00
12769;DHT22;6448;48.916;8.990;2022-11-03T04:36:28;13.30;56.00
12769;DHT22;6448;48.916;8.990;2022-11-03T04:37:29;13.20;56.00
12769;DHT22;6448;48.916;8.990;2022-11-03T04:38:30;13.20;56.00
12769;DHT22;6448;48.916;8.990;2022-11-03T04:39:32;13.20;56.00
12769;DHT22;6448;48.916;8.990;2022-11-03T04:40:33;13.20;56.00
12769;DHT22;6448;48.916;8.990;2022-11-03T04:41:35;13.20;56.00
12769;DHT22;6448;48.916;8.990;2022-11-03T04:42:38;13.20;56.00
12769;DHT22;6448;48.916;8.990;2022-11-03T04:43:39;13.20;56.00
12769;DHT22;6448;48.916;8.990;2022-11-03T04:44:42;13.20;56.00
12769;DHT22;6448;48.916;8.990;2022-11-03T04:45:45;13.20;56.00
12769;DHT22;6448;48.916;8.990;2022-11-03T04:46:46;13.20;55.90
12769;DHT22;6448;48.916;8.990;2022-11-03T04:47:48;13.20;55.90
12769;DHT22;6448;48.916;8.990;2022-11-03T04:48:50;13.20;55.90
12769;DHT22;6448;48.916;8.990;2022-11-03T04:49:53;13.20;55.90
12769;DHT22;6448;48.916;8.990;2022-11-03T04:50:55;13.20;55.80
12769;DHT22;6448;48.916;8.990;2022-11-03T04:51:57;13.20;55.80
12769;DHT22;6448;48.916;8.990;2022-11-03T04:52:58;13.20;55.80
12769;DHT22;6448;48.916;8.990;2022-11-03T04:54:02;13.20;55.70
12769;DHT22;6448;48.916;8.990;2022-11-03T04:55:07;13.20;55.70
12769;DHT22;6448;48.916;8.990;2022-11-03T04:56:15;13.20;55.60
12769;DHT22;6448;48.916;8.990;2022-11-03T04:57:17;13.20;55.60
12769;DHT22;6448;48.916;8.990;2022-11-03T04:58:20;13.20;55.60
12769;DHT22;6448;48.916;8.990;2022-11-03T04:59:21;13.20;55.60
12769;DHT22;6448;48.916;8.990;2022-11-03T05:00:24;13.10;55.60
12769;DHT22;6448;48.916;8.990;2022-11-03T05:01:26;13.10;55.60
12769;DHT22;6448;48.916;8.990;2022-11-03T05:02:29;13.20;55.80
12769;DHT22;6448;48.916;8.990;2022-11-03T05:03:31;13.20;55.80
12769;DHT22;6448;48.916;8.990;2022-11-03T05:04:34;13.20;55.80
12769;DHT22;6448;48.916;8.990;2022-11-03T05:05:35;13.10;55.80
12769;DHT22;6448;48.916;8.990;2022-11-03T05:06:36;13.10;55.80
12769;DHT22;6448;48.916;8.990;2022-11-03T05:07:38;13.10;55.80
12769;DHT22;6448;48.916;8.990;2022-11-03T05:08:40;13.20;55.90
12769;DHT22;6448;48.916;8.990;2022-11-03T05:09:41;13.10;55.80
12769;DHT22;6448;48.916;8.990;2022-11-03T05:10:43;13.20;55.90
12769;DHT22;6448;48.916;8.990;2022-11-03T05:11:44;13.20;55.90
12769;DHT22;6448;48.916;8.990;2022-11-03T05:12:47;13.10;55.90
12769;DHT22;6448;48.916;8.990;2022-11-03T05:13:49;13.20;55.90
12769;DHT22;6448;48.916;8.990;2022-11-03T05:14:51;13.20;56.00
12769;DHT22;6448;48.916;8.990;2022-11-03T05:15:59;13.10;55.90
12769;DHT22;6448;48.916;8.990;2022-11-03T05:17:02;13.10;56.00
12769;DHT22;6448;48.916;8.990;2022-11-03T05:18:15;13.20;56.60
12769;DHT22;6448;48.916;8.990;2022-11-03T05:19:20;13.10;56.00
12769;DHT22;6448;48.916;8.990;2022-11-03T05:20:28;13.10;56.10
12769;DHT22;6448;48.916;8.990;2022-11-03T05:21:30;13.10;56.10
12769;DHT22;6448;48.916;8.990;2022-11-03T05:22:35;13.20;56.20
12769;DHT22;6448;48.916;8.990;2022-11-03T05:23:38;13.20;56.20
12769;DHT22;6448;48.916;8.990;2022-11-03T05:24:40;13.10;56.20
12769;DHT22;6448;48.916;8.990;2022-11-03T05:25:43;13.20;56.20
12769;DHT22;6448;48.916;8.990;2022-11-03T05:26:46;13.10;56.20
12769;DHT22;6448;48.916;8.990;2022-11-03T05:27:47;13.10;56.20
12769;DHT22;6448;48.916;8.990;2022-11-03T05:28:51;13.20;56.30
12769;DHT22;6448;48.916;8.990;2022-11-03T05:29:54;13.10;56.30
12769;DHT22;6448;48.916;8.990;2022-11-03T05:30:58;13.10;56.30
12769;DHT22;6448;48.916;8.990;2022-11-03T05:31:59;13.10;56.20
12769;DHT22;6448;48.916;8.990;2022-11-03T05:33:01;13.10;56.20
12769;DHT22;6448;48.916;8.990;2022-11-03T05:34:20;13.10;56.20
12769;DHT22;6448;48.916;8.990;2022-11-03T05:35:26;13.10;56.20
12769;DHT22;6448;48.916;8.990;2022-11-03T05:36:29;13.10;56.20
12769;DHT22;6448;48.916;8.990;2022-11-03T05:37:32;13.10;56.20
12769;DHT22;6448;48.916;8.990;2022-11-03T05:38:33;13.10;56.20
12769;DHT22;6448;48.916;8.990;2022-11-03T05:39:36;13.00;56.10
12769;DHT22;6448;48.916;8.990;2022-11-03T05:40:40;13.10;56.20
12769;DHT22;6448;48.916;8.990;2022-11-03T05:41:42;13.10;56.20
12769;DHT22;6448;48.916;8.990;2022-11-03T05:42:43;13.10;56.20
12769;DHT22;6448;48.916;8.990;2022-11-03T05:43:53;13.10;56.20
12769;DHT22;6448;48.916;8.990;2022-11-03T05:44:56;13.10;56.20
12769;DHT22;6448;48.916;8.990;2022-11-03T05:46:02;13.10;56.20
12769;DHT22;6448;48.916;8.990;2022-11-03T05:47:08;13.10;56.20
12769;DHT22;6448;48.916;8.990;2022-11-03T05:48:17;13.10;56.20
12769;DHT22;6448;48.916;8.990;2022-11-03T05:49:18;13.00;56.20
12769;DHT22;6448;48.916;8.990;2022-11-03T05:50:22;13.00;56.20
12769;DHT22;6448;48.916;8.990;2022-11-03T05:51:28;13.00;56.20
12769;DHT22;6448;48.916;8.990;2022-11-03T05:52:31;13.10;56.30
12769;DHT22;6448;48.916;8.990;2022-11-03T05:53:36;13.00;56.20
12769;DHT22;6448;48.916;8.990;2022-11-03T05:54:38;13.00;56.30
12769;DHT22;6448;48.916;8.990;2022-11-03T05:55:41;13.00;56.40
12769;DHT22;6448;48.916;8.990;2022-11-03T05:56:43;13.00;56.40
12769;DHT22;6448;48.916;8.990;2022-11-03T05:57:45;13.00;56.40
12769;DHT22;6448;48.916;8.990;2022-11-03T05:58:48;13.10;56.50
12769;DHT22;6448;48.916;8.990;2022-11-03T05:59:50;13.00;56.40
12769;DHT22;6448;48.916;8.990;2022-11-03T06:00:52;13.00;56.40
12769;DHT22;6448;48.916;8.990;2022-11-03T06:01:58;13.20;56.50
12769;DHT22;6448;48.916;8.990;2022-11-03T06:03:00;13.00;56.40
12769;DHT22;6448;48.916;8.990;2022-11-03T06:04:13;13.00;56.40
12769;DHT22;6448;48.916;8.990;2022-11-03T06:05:19;13.00;56.50
12769;DHT22;6448;48.916;8.990;2022-11-03T06:06:23;13.00;56.50
12769;DHT22;6448;48.916;8.990;2022-11-03T06:07:26;13.00;56.60
12769;DHT22;6448;48.916;8.990;2022-11-03T06:08:32;13.00;56.60
12769;DHT22;6448;48.916;8.990;2022-11-03T06:09:34;13.00;56.60
12769;DHT22;6448;48.916;8.990;2022-11-03T06:10:38;13.10;56.60
12769;DHT22;6448;48.916;8.990;2022-11-03T06:11:42;13.00;56.50
12769;DHT22;6448;48.916;8.990;2022-11-03T06:12:43;13.00;56.40
12769;DHT22;6448;48.916;8.990;2022-11-03T06:13:45;13.00;56.50
12769;DHT22;6448;48.916;8.990;2022-11-03T06:14:46;13.00;56.50
12769;DHT22;6448;48.916;8.990;2022-11-03T06:15:52;13.00;56.50
12769;DHT22;6448;48.916;8.990;2022-11-03T06:16:58;13.00;56.50
12769;DHT22;6448;48.916;8.990;2022-11-03T06:18:01;12.90;56.50
12769;DHT22;6448;48.916;8.990;2022-11-03T06:19:24;13.00;56.60
12769;DHT22;6448;48.916;8.990;2022-11-03T06:20:27;13.00;56.60
12769;DHT22;6448;48.916;8.990;2022-11-03T06:21:29;13.10;56.60
12769;DHT22;6448;48.916;8.990;2022-11-03T06:22:35;13.00;56.50
12769;DHT22;6448;48.916;8.990;2022-11-03T06:23:38;13.10;56.60
12769;DHT22;6448;48.916;8.990;2022-11-03T06:24:40;13.00;56.50
12769;DHT22;6448;48.916;8.990;2022-11-03T06:25:42;13.10;56.60
12769;DHT22;6448;48.916;8.990;2022-11-03T06:26:43;13.00;56.40
12769;DHT22;6448;48.916;8.990;2022-11-03T06:27:46;13.00;56.50
12769;DHT22;6448;48.916;8.990;2022-11-03T06:28:48;13.00;56.50
12769;DHT22;6448;48.916;8.990;2022-11-03T06:29:52;13.00;56.50
12769;DHT22;6448;48.916;8.990;2022-11-03T06:30:54;13.00;56.50
12769;DHT22;6448;48.916;8.990;2022-11-03T06:31:57;13.00;57.10
12769;DHT22;6448;48.916;8.990;2022-11-03T06:33:01;13.00;56.50
12769;DHT22;6448;48.916;8.990;2022-11-03T06:34:16;13.00;56.50
12769;DHT22;6448;48.916;8.990;2022-11-03T06:35:19;12.90;56.40
12769;DHT22;6448;48.916;8.990;2022-11-03T06:36:21;13.00;56.50
12769;DHT22;6448;48.916;8.990;2022-11-03T06:37:25;12.90;56.50
12769;DHT22;6448;48.916;8.990;2022-11-03T06:38:29;13.00;56.50
12769;DHT22;6448;48.916;8.990;2022-11-03T06:39:32;13.20;56.60
12769;DHT22;6448;48.916;8.990;2022-11-03T06:40:35;13.00;56.50
12769;DHT22;6448;48.916;8.990;2022-11-03T06:41:37;13.00;56.50
12769;DHT22;6448;48.916;8.990;2022-11-03T06:42:39;13.00;56.50
12769;DHT22;6448;48.916;8.990;2022-11-03T06:43:42;13.00;56.50
12769;DHT22;6448;48.916;8.990;2022-11-03T06:44:45;12.90;56.50
12769;DHT22;6448;48.916;8.990;2022-11-03T06:45:51;13.00;56.60
12769;DHT22;6448;48.916;8.990;2022-11-03T06:46:53;12.90;56.50
12769;DHT22;6448;48.916;8.990;2022-11-03T06:48:13;13.00;56.60
12769;DHT22;6448;48.916;8.990;2022-11-03T06:49:27;12.90;56.60
12769;DHT22;6448;48.916;8.990;2022-11-03T06:50:30;12.90;56.70
12769;DHT22;6448;48.916;8.990;2022-11-03T06:51:34;12.90;56.70
12769;DHT22;6448;48.916;8.990;2022-11-03T06:52:38;12.90;56.70